createdAt,value
2023-06-10T00:00:55.121Z,2280.00
2023-06-10T00:01:55.150Z,2276.00
2023-06-10T00:02:55.232Z,2288.00
2023-06-10T00:03:55.345Z,2281.00
2023-06-10T00:04:55.325Z,2286.00
2023-06-10T00:05:55.272Z,2272.00
2023-06-10T00:06:55.279Z,2267.00
2023-06-10T00:07:55.299Z,2268.00
2023-06-10T00:08:55.300Z,2269.00
2023-06-10T00:09:55.312Z,2273.00
2023-06-10T00:10:55.318Z,2268.00
2023-06-10T00:11:55.333Z,2273.00
2023-06-10T00:12:55.332Z,2276.00
2023-06-10T00:13:55.338Z,2289.00
2023-06-10T00:14:55.334Z,2290.00
2023-06-10T00:15:55.390Z,2281.00
2023-06-10T00:16:55.334Z,2276.00
2023-06-10T00:17:55.383Z,2279.00
2023-06-10T00:18:55.347Z,2270.00
2023-06-10T00:19:55.342Z,2263.00
2023-06-10T00:20:55.365Z,2260.00
2023-06-10T00:21:55.356Z,2278.00
2023-06-10T00:22:55.360Z,2255.00
2023-06-10T00:23:55.414Z,2261.00
2023-06-10T00:24:55.403Z,2275.00
2023-06-10T00:25:55.412Z,2256.00
2023-06-10T00:26:55.402Z,2255.00
2023-06-10T00:27:55.421Z,2243.00
2023-06-10T00:28:55.415Z,2248.00
2023-06-10T00:29:55.409Z,2242.00
2023-06-10T00:30:55.422Z,2246.00
2023-06-10T00:31:55.456Z,2259.00
2023-06-10T00:32:55.494Z,2262.00
2023-06-10T00:33:55.436Z,2247.00
2023-06-10T00:34:55.443Z,2239.00
2023-06-10T00:35:55.473Z,2229.00
2023-06-10T00:36:55.485Z,2238.00
2023-06-10T00:37:55.537Z,2232.00
2023-06-10T00:38:55.539Z,2238.00
2023-06-10T00:39:55.554Z,2241.00
2023-06-10T00:40:55.581Z,2232.00
2023-06-10T00:41:55.614Z,2252.00
2023-06-10T00:42:55.642Z,2222.00
2023-06-10T00:43:55.656Z,2222.00
2023-06-10T00:44:55.689Z,2236.00
2023-06-10T00:45:55.776Z,2232.00
2023-06-10T00:46:55.731Z,2237.00
2023-06-10T00:47:55.833Z,2219.00
2023-06-10T00:48:55.787Z,2207.00
2023-06-10T00:49:55.825Z,2223.00
2023-06-10T00:50:55.848Z,2197.00
2023-06-10T00:51:55.869Z,2231.00
2023-06-10T00:52:56.067Z,2218.00
2023-06-10T00:53:55.925Z,2207.00
2023-06-10T00:54:55.949Z,2216.00
2023-06-10T00:55:55.983Z,2220.00
2023-06-10T00:56:56.002Z,2215.00
2023-06-10T00:57:56.037Z,2224.00
2023-06-10T00:58:56.052Z,2199.00
2023-06-10T00:59:56.095Z,2203.00
2023-06-10T01:00:56.137Z,2210.00
2023-06-10T01:01:56.142Z,2199.00
2023-06-10T01:02:56.307Z,2199.00
2023-06-10T01:03:56.214Z,2196.00
2023-06-10T01:04:56.253Z,2212.00
2023-06-10T01:05:56.260Z,2202.00
2023-06-10T01:06:56.307Z,2196.00
2023-06-10T01:07:56.334Z,2202.00
2023-06-10T01:08:56.339Z,2203.00
2023-06-10T01:09:56.357Z,2204.00
2023-06-10T01:10:56.356Z,2199.00
2023-06-10T01:11:56.357Z,2196.00
2023-06-10T01:12:56.364Z,2198.00
2023-06-10T01:13:56.351Z,2189.00
2023-06-10T01:14:56.388Z,2193.00
2023-06-10T01:15:56.381Z,2195.00
2023-06-10T01:16:56.419Z,2184.00
2023-06-10T01:17:56.440Z,2204.00
2023-06-10T01:18:56.383Z,2205.00
2023-06-10T01:19:56.424Z,2202.00
2023-06-10T01:20:56.403Z,2196.00
2023-06-10T01:21:56.423Z,2197.00
2023-06-10T01:22:56.430Z,2191.00
2023-06-10T01:23:56.467Z,2198.00
2023-06-10T01:24:56.443Z,2198.00
2023-06-10T01:25:56.448Z,2194.00
2023-06-10T01:26:56.454Z,2187.00
2023-06-10T01:27:56.474Z,2181.00
2023-06-10T01:28:56.466Z,2187.00
2023-06-10T01:29:56.483Z,2176.00
2023-06-10T01:30:56.500Z,2177.00
2023-06-10T01:31:56.494Z,2178.00
2023-06-10T01:32:56.549Z,2186.00
2023-06-10T01:33:56.516Z,2170.00
2023-06-10T01:34:56.537Z,2154.00
2023-06-10T01:35:56.543Z,2177.00
2023-06-10T01:36:56.554Z,2171.00
2023-06-10T01:37:56.566Z,2173.00
2023-06-10T01:38:56.574Z,2174.00
2023-06-10T01:39:56.574Z,2174.00
2023-06-10T01:40:56.581Z,2166.00
2023-06-10T01:41:56.595Z,2177.00
2023-06-10T01:42:56.605Z,2168.00
2023-06-10T01:43:56.615Z,2169.00
2023-06-10T01:44:56.620Z,2170.00
2023-06-10T01:45:56.638Z,2163.00
2023-06-10T01:46:56.850Z,2163.00
2023-06-10T01:47:56.706Z,2164.00
2023-06-10T01:48:56.681Z,2161.00
2023-06-10T01:49:56.669Z,2169.00
2023-06-10T01:50:56.674Z,2160.00
2023-06-10T01:51:56.711Z,2164.00
2023-06-10T01:52:56.698Z,2165.00
2023-06-10T01:53:56.692Z,2164.00
2023-06-10T01:54:56.715Z,2172.00
2023-06-10T01:55:56.718Z,2158.00
2023-06-10T01:56:56.733Z,2162.00
2023-06-10T01:57:56.758Z,2156.00
2023-06-10T01:58:56.747Z,2157.00
2023-06-10T01:59:56.769Z,2159.00
2023-06-10T02:00:56.851Z,2161.00
2023-06-10T02:01:56.822Z,2161.00
2023-06-10T02:02:56.839Z,2158.00
2023-06-10T02:03:56.848Z,2162.00
2023-06-10T02:04:56.820Z,2142.00
2023-06-10T02:05:56.823Z,2162.00
2023-06-10T02:06:56.817Z,2148.00
2023-06-10T02:07:56.821Z,2155.00
2023-06-10T02:08:56.831Z,2158.00
2023-06-10T02:09:56.834Z,2155.00
2023-06-10T02:10:56.827Z,2143.00
2023-06-10T02:11:56.847Z,2153.00
2023-06-10T02:12:56.849Z,2129.00
2023-06-10T02:13:56.838Z,2140.00
2023-06-10T02:14:56.865Z,2144.00
2023-06-10T02:15:56.875Z,2131.00
2023-06-10T02:16:56.960Z,2143.00
2023-06-10T02:17:56.969Z,2147.00
2023-06-10T02:18:56.936Z,2139.00
2023-06-10T02:19:56.969Z,2135.00
2023-06-10T02:20:57.016Z,2133.00
2023-06-10T02:21:57.052Z,2113.00
2023-06-10T02:22:57.092Z,2130.00
2023-06-10T02:23:57.160Z,2135.00
2023-06-10T02:24:57.142Z,2132.00
2023-06-10T02:25:57.179Z,2130.00
2023-06-10T02:26:57.194Z,2117.00
2023-06-10T02:27:57.226Z,2121.00
2023-06-10T02:28:57.266Z,2118.00
2023-06-10T02:29:57.272Z,2118.00
2023-06-10T02:30:57.279Z,2119.00
2023-06-10T02:31:57.343Z,2129.00
2023-06-10T02:32:57.409Z,2115.00
2023-06-10T02:33:57.327Z,2133.00
2023-06-10T02:34:57.342Z,2120.00
2023-06-10T02:35:57.345Z,2124.00
2023-06-10T02:36:57.350Z,2121.00
2023-06-10T02:37:57.363Z,2104.00
2023-06-10T02:38:57.370Z,2106.00
2023-06-10T02:39:57.391Z,2109.00
2023-06-10T02:40:57.388Z,2109.00
2023-06-10T02:41:57.417Z,2113.00
2023-06-10T02:42:57.423Z,2134.00
2023-06-10T02:43:57.434Z,2118.00
2023-06-10T02:44:57.437Z,2119.00
2023-06-10T02:45:57.542Z,2110.00
2023-06-10T02:46:57.478Z,2111.00
2023-06-10T02:47:57.532Z,2111.00
2023-06-10T02:48:57.507Z,2117.00
2023-06-10T02:49:57.502Z,2120.00
2023-06-10T02:50:57.526Z,2103.00
2023-06-10T02:51:57.523Z,2111.00
2023-06-10T02:52:57.545Z,2085.00
2023-06-10T02:53:57.531Z,2012.00
2023-06-10T02:54:57.559Z,1940.00
2023-06-10T02:55:57.562Z,1911.00
2023-06-10T02:56:57.560Z,1872.00
2023-06-10T02:57:57.594Z,1835.00
2023-06-10T02:58:57.600Z,1784.00
2023-06-10T02:59:57.617Z,1762.00
2023-06-10T03:00:57.651Z,1737.00
2023-06-10T03:01:57.718Z,1697.00
2023-06-10T03:02:57.795Z,1672.00
2023-06-10T03:03:57.838Z,1641.00
2023-06-10T03:04:57.815Z,1617.00
2023-06-10T03:05:57.961Z,1588.00
2023-06-10T03:06:58.006Z,1591.00
2023-06-10T03:07:58.078Z,1544.00
2023-06-10T03:08:58.197Z,1498.00
2023-06-10T03:09:58.215Z,1497.00
2023-06-10T03:10:58.296Z,1479.00
2023-06-10T03:11:58.377Z,1460.00
2023-06-10T03:12:58.473Z,1415.00
2023-06-10T03:13:58.504Z,1416.00
2023-06-10T03:14:58.623Z,1408.00
2023-06-10T03:15:58.699Z,1391.00
2023-06-10T03:16:58.771Z,1353.00
2023-06-10T03:17:58.863Z,1336.00
2023-06-10T03:18:58.884Z,1336.00
2023-06-10T03:19:58.884Z,1323.00
2023-06-10T03:20:58.906Z,1332.00
2023-06-10T03:21:58.919Z,1315.00
2023-06-10T03:22:58.954Z,1287.00
2023-06-10T03:23:59.032Z,1278.00
2023-06-10T03:24:59.006Z,1280.00
2023-06-10T03:25:59.044Z,1265.00
2023-06-10T03:26:59.089Z,1254.00
2023-06-10T03:27:59.115Z,1235.00
2023-06-10T03:28:59.139Z,1245.00
2023-06-10T03:29:59.174Z,1209.00
2023-06-10T03:30:59.209Z,1192.00
2023-06-10T03:31:59.310Z,1190.00
2023-06-10T03:32:59.290Z,1189.00
2023-06-10T03:33:59.322Z,1189.00
2023-06-10T03:34:59.345Z,1174.00
2023-06-10T03:35:59.342Z,1159.00
2023-06-10T03:36:59.452Z,1138.00
2023-06-10T03:37:59.420Z,1140.00
2023-06-10T03:38:59.436Z,1127.00
2023-06-10T03:39:59.463Z,1119.00
2023-06-10T03:40:59.503Z,1117.00
2023-06-10T03:41:59.522Z,1116.00
2023-06-10T03:42:59.568Z,1105.00
2023-06-10T03:43:59.598Z,1107.00
2023-06-10T03:44:59.618Z,1110.00
2023-06-10T03:45:59.723Z,1113.00
2023-06-10T03:46:59.683Z,1107.00
2023-06-10T03:47:59.718Z,1110.00
2023-06-10T03:48:59.733Z,1112.00
2023-06-10T03:49:59.747Z,1115.00
2023-06-10T03:50:59.783Z,1139.00
2023-06-10T03:51:59.814Z,1115.00
2023-06-10T03:52:59.853Z,1130.00
2023-06-10T03:53:59.872Z,1119.00
2023-06-10T03:54:59.912Z,1114.00
2023-06-10T03:55:59.931Z,1113.00
2023-06-10T03:56:59.949Z,1103.00
2023-06-10T03:57:59.985Z,1110.00
2023-06-10T03:59:00.032Z,1101.00
2023-06-10T04:00:00.054Z,1115.00
2023-06-10T04:01:00.091Z,1120.00
2023-06-10T04:02:00.250Z,1133.00
2023-06-10T04:03:00.185Z,1125.00
2023-06-10T04:04:00.202Z,1147.00
2023-06-10T04:05:00.202Z,1153.00
2023-06-10T04:06:00.250Z,1164.00
2023-06-10T04:07:00.253Z,1152.00
2023-06-10T04:08:00.287Z,1163.00
2023-06-10T04:09:00.335Z,1170.00
2023-06-10T04:10:00.406Z,1164.00
2023-06-10T04:11:00.485Z,1158.00
2023-06-10T04:12:00.536Z,1161.00
2023-06-10T04:13:00.614Z,1156.00
2023-06-10T04:14:00.687Z,1154.00
2023-06-10T04:15:00.753Z,1150.00
2023-06-10T04:16:00.820Z,1144.00
2023-06-10T04:17:00.940Z,1143.00
2023-06-10T04:18:01.037Z,1152.00
2023-06-10T04:19:01.031Z,1144.00
2023-06-10T04:20:01.118Z,1158.00
2023-06-10T04:21:01.191Z,1155.00
2023-06-10T04:22:01.241Z,1168.00
2023-06-10T04:23:01.320Z,1163.00
2023-06-10T04:24:01.411Z,1177.00
2023-06-10T04:25:01.467Z,1177.00
2023-06-10T04:26:01.495Z,1178.00
2023-06-10T04:27:01.541Z,1179.00
2023-06-10T04:28:01.561Z,1181.00
2023-06-10T04:29:01.602Z,1201.00
2023-06-10T04:30:01.628Z,1228.00
2023-06-10T04:31:01.677Z,1213.00
2023-06-10T04:32:01.725Z,1223.00
2023-06-10T04:33:01.783Z,1234.00
2023-06-10T04:34:01.756Z,1232.00
2023-06-10T04:35:01.800Z,1228.00
2023-06-10T04:36:01.828Z,1244.00
2023-06-10T04:37:01.856Z,1245.00
2023-06-10T04:38:01.893Z,1250.00
2023-06-10T04:39:01.917Z,1252.00
2023-06-10T04:40:01.941Z,1251.00
2023-06-10T04:41:01.977Z,1269.00
2023-06-10T04:42:02.009Z,1276.00
2023-06-10T04:43:02.088Z,1272.00
2023-06-10T04:44:02.148Z,1269.00
2023-06-10T04:45:02.215Z,1284.00
2023-06-10T04:46:02.286Z,1280.00
2023-06-10T04:47:02.418Z,1270.00
2023-06-10T04:48:02.464Z,1287.00
2023-06-10T04:49:02.515Z,1282.00
2023-06-10T04:50:02.578Z,1282.00
2023-06-10T04:51:02.660Z,1295.00
2023-06-10T04:52:02.743Z,1288.00
2023-06-10T04:53:02.777Z,1288.00
2023-06-10T04:54:02.802Z,1290.00
2023-06-10T04:55:02.820Z,1296.00
2023-06-10T04:56:02.857Z,1306.00
2023-06-10T04:57:02.895Z,1324.00
2023-06-10T04:58:02.937Z,1312.00
2023-06-10T04:59:03.007Z,1305.00
2023-06-10T05:00:02.995Z,1326.00
2023-06-10T05:01:03.094Z,1325.00
2023-06-10T05:02:03.152Z,1323.00
2023-06-10T05:03:03.244Z,1324.00
2023-06-10T05:04:03.220Z,1329.00
2023-06-10T05:05:03.152Z,1322.00
2023-06-10T05:06:03.188Z,1323.00
2023-06-10T05:07:03.228Z,1339.00
2023-06-10T05:08:04.920Z,1336.00
2023-06-10T05:09:03.308Z,1337.00
2023-06-10T05:10:03.344Z,1337.00
2023-06-10T05:11:03.362Z,1347.00
2023-06-10T05:12:03.411Z,1353.00
2023-06-10T05:13:03.437Z,1350.00
2023-06-10T05:14:03.477Z,1341.00
2023-06-10T05:15:03.565Z,1368.00
2023-06-10T05:16:03.556Z,1347.00
2023-06-10T05:17:03.593Z,1335.00
2023-06-10T05:18:03.751Z,1348.00
2023-06-10T05:19:06.303Z,1346.00
2023-06-10T05:20:03.684Z,1347.00
2023-06-10T05:21:03.720Z,1349.00
2023-06-10T05:22:03.765Z,1351.00
2023-06-10T05:23:03.789Z,1357.00
2023-06-10T05:24:03.885Z,1368.00
2023-06-10T05:25:03.843Z,1375.00
2023-06-10T05:26:03.858Z,1355.00
2023-06-10T05:27:03.902Z,1365.00
2023-06-10T05:28:03.944Z,1387.00
2023-06-10T05:29:03.966Z,1366.00
2023-06-10T05:30:03.989Z,1363.00
2023-06-10T05:31:04.026Z,1384.00
2023-06-10T05:32:04.221Z,1381.00
2023-06-10T05:33:04.099Z,1381.00
2023-06-10T05:34:04.134Z,1381.00
2023-06-10T05:35:04.128Z,1381.00
2023-06-10T05:36:04.156Z,1363.00
2023-06-10T05:37:04.182Z,1364.00
2023-06-10T05:38:04.426Z,1383.00
2023-06-10T05:39:04.258Z,1369.00
2023-06-10T05:40:04.298Z,1363.00
2023-06-10T05:41:04.313Z,1375.00
2023-06-10T05:42:04.337Z,1373.00
2023-06-10T05:43:04.423Z,1368.00
2023-06-10T05:44:04.399Z,1379.00
2023-06-10T05:45:04.433Z,1366.00
2023-06-10T05:46:04.524Z,1386.00
2023-06-10T05:47:04.543Z,1366.00
2023-06-10T05:48:04.649Z,1389.00
2023-06-10T05:49:04.667Z,1384.00
2023-06-10T05:50:04.709Z,1386.00
2023-06-10T05:51:04.764Z,1392.00
2023-06-10T05:52:04.846Z,1382.00
2023-06-10T05:53:04.923Z,1404.00
2023-06-10T05:54:05.022Z,1373.00
2023-06-10T05:55:05.037Z,1381.00
2023-06-10T05:56:05.064Z,1381.00
2023-06-10T05:57:05.091Z,1385.00
2023-06-10T05:58:05.126Z,1385.00
2023-06-10T05:59:05.166Z,1391.00
2023-06-10T06:00:05.189Z,1394.00
2023-06-10T06:01:05.243Z,1387.00
2023-06-10T06:02:05.291Z,1397.00
2023-06-10T06:03:05.387Z,1397.00
2023-06-10T06:04:05.318Z,1409.00
2023-06-10T06:05:05.445Z,1414.00
2023-06-10T06:06:05.402Z,1440.00
2023-06-10T06:07:05.407Z,1426.00
2023-06-10T06:08:05.436Z,1433.00
2023-06-10T06:09:05.474Z,1420.00
2023-06-10T06:10:05.497Z,1416.00
2023-06-10T06:11:05.525Z,1398.00
2023-06-10T06:12:05.560Z,1384.00
2023-06-10T06:13:05.597Z,1366.00
2023-06-10T06:14:05.628Z,1336.00
2023-06-10T06:15:05.657Z,1319.00
2023-06-10T06:16:05.712Z,1311.00
2023-06-10T06:17:05.706Z,1312.00
2023-06-10T06:18:05.918Z,1301.00
2023-06-10T06:19:05.767Z,1303.00
2023-06-10T06:20:05.795Z,1292.00
2023-06-10T06:21:05.840Z,1286.00
2023-06-10T06:22:05.865Z,1267.00
2023-06-10T06:23:05.907Z,1270.00
2023-06-10T06:24:06.143Z,1216.00
2023-06-10T06:25:06.012Z,1218.00
2023-06-10T06:26:08.758Z,1213.00
2023-06-10T06:27:06.046Z,1199.00
2023-06-10T06:28:06.065Z,1204.00
2023-06-10T06:29:06.063Z,1185.00
2023-06-10T06:30:06.082Z,1181.00
2023-06-10T06:31:06.142Z,1185.00
2023-06-10T06:32:06.139Z,1190.00
2023-06-10T06:33:06.262Z,1199.00
2023-06-10T06:34:06.185Z,1188.00
2023-06-10T06:35:06.390Z,1176.00
2023-06-10T06:36:06.291Z,1194.00
2023-06-10T06:37:06.306Z,1192.00
2023-06-10T06:38:06.320Z,1213.00
2023-06-10T06:39:06.325Z,1226.00
2023-06-10T06:40:06.322Z,1245.00
2023-06-10T06:41:06.345Z,1255.00
2023-06-10T06:42:06.419Z,1249.00
2023-06-10T06:43:06.421Z,1238.00
2023-06-10T06:44:06.406Z,1266.00
2023-06-10T06:45:06.487Z,1267.00
2023-06-10T06:46:06.452Z,1287.00
2023-06-10T06:47:06.460Z,1262.00
2023-06-10T06:48:06.641Z,1259.00
2023-06-10T06:49:06.517Z,1281.00
2023-06-10T06:50:06.578Z,1287.00
2023-06-10T06:51:06.594Z,1276.00
2023-06-10T06:52:06.591Z,1282.00
2023-06-10T06:53:06.607Z,1268.00
2023-06-10T06:54:06.648Z,1262.00
2023-06-10T06:55:06.841Z,1259.00
2023-06-10T06:56:06.682Z,1223.00
2023-06-10T06:57:06.692Z,1221.00
2023-06-10T06:58:06.712Z,1188.00
2023-06-10T06:59:06.740Z,1179.00
2023-06-10T07:00:06.752Z,1140.00
2023-06-10T07:01:06.808Z,1128.00
2023-06-10T07:02:06.805Z,1089.00
2023-06-10T07:03:06.875Z,1073.00
2023-06-10T07:04:06.869Z,1041.00
2023-06-10T07:05:07.017Z,1007.00
2023-06-10T07:06:06.866Z,976.00
2023-06-10T07:07:06.881Z,952.00
2023-06-10T07:08:06.944Z,916.00
2023-06-10T07:09:07.001Z,904.00
2023-06-10T07:10:07.085Z,882.00
2023-06-10T07:11:07.145Z,836.00
2023-06-10T07:12:07.224Z,797.00
2023-06-10T07:13:07.326Z,734.00
2023-06-10T07:14:07.384Z,705.00
2023-06-10T07:15:07.722Z,662.00
2023-06-10T07:16:07.551Z,646.00
2023-06-10T07:17:07.735Z,625.00
2023-06-10T07:18:07.765Z,619.00
2023-06-10T07:19:07.766Z,593.00
2023-06-10T07:20:07.925Z,574.00
2023-06-10T07:21:07.925Z,560.00
2023-06-10T07:22:07.964Z,544.00
2023-06-10T07:23:08.057Z,522.00
2023-06-10T07:24:08.172Z,500.00
2023-06-10T07:25:08.357Z,506.00
2023-06-10T07:26:08.246Z,500.00
2023-06-10T07:27:08.328Z,500.00
2023-06-10T07:28:08.397Z,500.00
2023-06-10T07:29:08.460Z,502.00
2023-06-10T07:30:08.530Z,500.00
2023-06-10T07:31:08.623Z,502.00
2023-06-10T07:32:08.672Z,500.00
2023-06-10T07:33:08.901Z,501.00
2023-06-10T07:34:08.780Z,500.00
2023-06-10T07:35:09.162Z,503.00
2023-06-10T07:36:08.889Z,502.00
2023-06-10T07:37:08.944Z,500.00
2023-06-10T07:38:09.011Z,501.00
2023-06-10T07:39:09.069Z,499.00
2023-06-10T07:40:09.126Z,502.00
2023-06-10T07:41:09.156Z,504.00
2023-06-10T07:42:09.206Z,504.00
2023-06-10T07:43:09.250Z,500.00
2023-06-10T07:44:09.305Z,500.00
2023-06-10T07:45:09.509Z,501.00
2023-06-10T07:46:09.412Z,501.00
2023-06-10T07:47:09.407Z,501.00
2023-06-10T07:48:09.475Z,501.00
2023-06-10T07:49:09.492Z,504.00
2023-06-10T07:50:09.549Z,505.00
2023-06-10T07:51:09.580Z,503.00
2023-06-10T07:52:09.645Z,509.00
2023-06-10T07:53:09.663Z,503.00
2023-06-10T07:54:09.691Z,500.00
2023-06-10T07:55:09.922Z,500.00
2023-06-10T07:56:09.704Z,493.00
2023-06-10T07:57:09.727Z,484.00
2023-06-10T07:58:09.724Z,482.00
2023-06-10T07:59:09.723Z,472.00
2023-06-10T08:00:09.727Z,507.00
2023-06-10T08:01:09.733Z,501.00
2023-06-10T08:02:09.736Z,500.00
2023-06-10T08:03:09.852Z,505.00
2023-06-10T08:04:09.879Z,502.00
2023-06-10T08:05:09.945Z,502.00
2023-06-10T08:06:09.766Z,502.00
2023-06-10T08:07:09.758Z,503.00
2023-06-10T08:08:09.795Z,505.00
2023-06-10T08:09:09.785Z,501.00
2023-06-10T08:10:09.822Z,500.00
2023-06-10T08:11:09.808Z,505.00
2023-06-10T08:12:09.791Z,506.00
2023-06-10T08:13:09.800Z,504.00
2023-06-10T08:14:09.786Z,507.00
2023-06-10T08:15:10.072Z,502.00
2023-06-10T08:16:09.814Z,500.00
2023-06-10T08:17:09.820Z,504.00
2023-06-10T08:18:09.987Z,508.00
2023-06-10T08:19:09.885Z,502.00
2023-06-10T08:20:09.923Z,502.00
2023-06-10T08:21:09.932Z,505.00
2023-06-10T08:22:09.961Z,505.00
2023-06-10T08:23:10.029Z,503.00
2023-06-10T08:24:10.054Z,504.00
2023-06-10T08:25:10.295Z,504.00
2023-06-10T08:26:10.048Z,509.00
2023-06-10T08:27:10.090Z,506.00
2023-06-10T08:28:10.119Z,499.00
2023-06-10T08:29:10.133Z,507.00
2023-06-10T08:30:10.140Z,501.00
2023-06-10T08:31:10.184Z,514.00
2023-06-10T08:32:10.237Z,508.00
2023-06-10T08:33:10.304Z,503.00
2023-06-10T08:34:10.242Z,507.00
2023-06-10T08:35:10.556Z,500.00
2023-06-10T08:36:10.256Z,500.00
2023-06-10T08:37:10.281Z,496.00
2023-06-10T08:38:10.296Z,499.00
2023-06-10T08:39:10.257Z,503.00
2023-06-10T08:40:10.254Z,500.00
2023-06-10T08:41:10.266Z,500.00
2023-06-10T08:42:10.268Z,507.00
2023-06-10T08:43:10.262Z,513.00
2023-06-10T08:44:10.282Z,501.00
2023-06-10T08:45:10.566Z,503.00
2023-06-10T08:46:10.278Z,505.00
2023-06-10T08:47:10.312Z,513.00
2023-06-10T08:48:10.462Z,511.00
2023-06-10T08:49:10.353Z,525.00
2023-06-10T08:50:12.609Z,532.00
2023-06-10T08:51:10.333Z,545.00
2023-06-10T08:52:10.319Z,545.00
2023-06-10T08:53:10.346Z,570.00
2023-06-10T08:54:10.312Z,583.00
2023-06-10T08:55:10.440Z,636.00
2023-06-10T08:56:10.339Z,648.00
2023-06-10T08:57:10.363Z,649.00
2023-06-10T08:58:10.388Z,657.00
2023-06-10T08:59:10.393Z,696.00
2023-06-10T09:00:10.545Z,783.00
2023-06-10T09:01:10.377Z,914.00
2023-06-10T09:02:10.384Z,958.00
2023-06-10T09:03:10.413Z,997.00
2023-06-10T09:04:10.348Z,1034.00
2023-06-10T09:05:10.347Z,1095.00
2023-06-10T09:06:10.360Z,1096.00
2023-06-10T09:07:10.349Z,1104.00
2023-06-10T09:08:10.428Z,1123.00
2023-06-10T09:09:10.317Z,1170.00
2023-06-10T09:10:10.556Z,1242.00
2023-06-10T09:11:10.318Z,1277.00
2023-06-10T09:12:10.343Z,1323.00
2023-06-10T09:13:10.403Z,1373.00
2023-06-10T09:14:10.393Z,1408.00
2023-06-10T09:15:10.386Z,1443.00
2023-06-10T09:16:10.407Z,1467.00
2023-06-10T09:17:10.398Z,1507.00
2023-06-10T09:18:10.439Z,1549.00
2023-06-10T09:19:10.387Z,1584.00
2023-06-10T09:20:10.907Z,1626.00
2023-06-10T09:21:10.389Z,1653.00
2023-06-10T09:22:10.403Z,1655.00
2023-06-10T09:23:10.303Z,1662.00
2023-06-10T09:24:10.354Z,1687.00
2023-06-10T09:25:10.493Z,1724.00
2023-06-10T09:26:10.753Z,1812.00
2023-06-10T09:27:10.262Z,1849.00
2023-06-10T09:28:10.266Z,1884.00
2023-06-10T09:29:10.256Z,1908.00
2023-06-10T09:30:10.534Z,1956.00
2023-06-10T09:31:10.403Z,1982.00
2023-06-10T09:32:10.781Z,2006.00
2023-06-10T09:33:10.350Z,2034.00
2023-06-10T09:34:10.212Z,2078.00
2023-06-10T09:35:10.208Z,2091.00
2023-06-10T09:36:10.201Z,2104.00
2023-06-10T09:37:10.223Z,2139.00
2023-06-10T09:38:10.883Z,2173.00
2023-06-10T09:39:10.337Z,2206.00
2023-06-10T09:40:10.638Z,2215.00
2023-06-10T09:41:10.470Z,2243.00
2023-06-10T09:42:10.537Z,2254.00
2023-06-10T09:43:10.532Z,2255.00
2023-06-10T09:44:10.533Z,2263.00
2023-06-10T09:45:10.530Z,2282.00
2023-06-10T09:46:10.570Z,2323.00
2023-06-10T09:47:10.513Z,2374.00
2023-06-10T09:48:10.566Z,2403.00
2023-06-10T09:49:10.512Z,2414.00
2023-06-10T09:50:11.493Z,2433.00
2023-06-10T09:51:10.595Z,2450.00
2023-06-10T09:52:10.527Z,2474.00
2023-06-10T09:53:10.505Z,2482.00
2023-06-10T09:54:10.500Z,2506.00
2023-06-10T09:55:10.543Z,2524.00
2023-06-10T09:56:11.145Z,2542.00
2023-06-10T09:57:10.688Z,2556.00
2023-06-10T09:58:10.639Z,2573.00
2023-06-10T09:59:10.669Z,2587.00
2023-06-10T10:00:11.093Z,2592.00
2023-06-10T10:01:10.804Z,2609.00
2023-06-10T10:02:11.409Z,2620.00
2023-06-10T10:03:11.016Z,2635.00
2023-06-10T10:04:10.942Z,2651.00
2023-06-10T10:05:11.220Z,2656.00
2023-06-10T10:06:11.020Z,2679.00
2023-06-10T10:07:10.993Z,2680.00
2023-06-10T10:08:11.034Z,2683.00
2023-06-10T10:09:11.062Z,2695.00
2023-06-10T10:10:11.002Z,2716.00
2023-06-10T10:11:11.012Z,2738.00
2023-06-10T10:12:10.972Z,2764.00
2023-06-10T10:13:10.971Z,2765.00
2023-06-10T10:14:11.053Z,2787.00
2023-06-10T10:15:11.193Z,2803.00
2023-06-10T10:16:11.010Z,2796.00
2023-06-10T10:17:11.165Z,2813.00
2023-06-10T10:18:11.200Z,2822.00
2023-06-10T10:19:11.107Z,2827.00
2023-06-10T10:20:11.155Z,2847.00
2023-06-10T10:21:11.204Z,2851.00
2023-06-10T10:22:11.232Z,2856.00
2023-06-10T10:23:11.229Z,2854.00
2023-06-10T10:24:11.381Z,2865.00
2023-06-10T10:25:11.604Z,2866.00
2023-06-10T10:26:11.272Z,2886.00
2023-06-10T10:27:11.288Z,2887.00
2023-06-10T10:28:11.320Z,2887.00
2023-06-10T10:29:11.269Z,2892.00
2023-06-10T10:30:11.309Z,2901.00
2023-06-10T10:31:11.309Z,2916.00
2023-06-10T10:32:11.359Z,2940.00
2023-06-10T10:33:11.476Z,2944.00
2023-06-10T10:34:11.341Z,2948.00
2023-06-10T10:35:11.575Z,2949.00
2023-06-10T10:36:11.248Z,2948.00
2023-06-10T10:37:11.353Z,2966.00
2023-06-10T10:38:11.358Z,2967.00
2023-06-10T10:39:11.339Z,2969.00
2023-06-10T10:40:11.330Z,2971.00
2023-06-10T10:41:11.325Z,2979.00
2023-06-10T10:42:11.343Z,2988.00
2023-06-10T10:43:11.340Z,3003.00
2023-06-10T10:44:11.325Z,3011.00
2023-06-10T10:45:11.615Z,3024.00
2023-06-10T10:46:11.405Z,3010.00
2023-06-10T10:47:11.309Z,3010.00
2023-06-10T10:48:11.354Z,3016.00
2023-06-10T10:49:11.415Z,3027.00
2023-06-10T10:50:13.917Z,3022.00
2023-06-10T10:51:11.449Z,3029.00
2023-06-10T10:52:11.459Z,3032.00
2023-06-10T10:53:11.465Z,3037.00
2023-06-10T10:54:11.433Z,3047.00
2023-06-10T10:55:11.556Z,3036.00
2023-06-10T10:56:13.706Z,3041.00
2023-06-10T10:57:11.477Z,3042.00
2023-06-10T10:58:11.423Z,3043.00
2023-06-10T10:59:11.436Z,3048.00
2023-06-10T11:00:11.490Z,3032.00
2023-06-10T11:01:11.448Z,3047.00
2023-06-10T11:02:11.458Z,3059.00
2023-06-10T11:03:12.241Z,3047.00
2023-06-10T11:04:11.720Z,3058.00
2023-06-10T11:05:11.993Z,3068.00
2023-06-10T11:06:11.412Z,3071.00
2023-06-10T11:07:11.430Z,3065.00
2023-06-10T11:08:11.381Z,3063.00
2023-06-10T11:09:11.391Z,3049.00
2023-06-10T11:10:11.379Z,3065.00
2023-06-10T11:11:11.367Z,3065.00
2023-06-10T11:12:11.358Z,3066.00
2023-06-10T11:13:11.356Z,3066.00
2023-06-10T11:14:11.354Z,3068.00
2023-06-10T11:15:11.605Z,3080.00
2023-06-10T11:16:11.358Z,3069.00
2023-06-10T11:17:11.353Z,3058.00
2023-06-10T11:18:11.323Z,3058.00
2023-06-10T11:19:11.300Z,3057.00
2023-06-10T11:20:11.278Z,3064.00
2023-06-10T11:21:11.285Z,3060.00
2023-06-10T11:22:11.296Z,3053.00
2023-06-10T11:23:11.255Z,3077.00
2023-06-10T11:24:11.407Z,3066.00
2023-06-10T11:25:11.496Z,3057.00
2023-06-10T11:26:11.361Z,3050.00
2023-06-10T11:27:11.402Z,3062.00
2023-06-10T11:28:11.498Z,3060.00
2023-06-10T11:29:11.486Z,3062.00
2023-06-10T11:30:11.517Z,3056.00
2023-06-10T11:31:11.664Z,3058.00
2023-06-10T11:32:11.664Z,3066.00
2023-06-10T11:33:11.755Z,3042.00
2023-06-10T11:34:11.703Z,3051.00
2023-06-10T11:35:12.179Z,3060.00
2023-06-10T11:36:11.746Z,3067.00
2023-06-10T11:37:11.775Z,3043.00
2023-06-10T11:38:11.835Z,3066.00
2023-06-10T11:39:11.854Z,3053.00
2023-06-10T11:40:11.926Z,3061.00
2023-06-10T11:41:11.917Z,3060.00
2023-06-10T11:42:11.949Z,3062.00
2023-06-10T11:43:11.993Z,3054.00
2023-06-10T11:44:12.057Z,3064.00
2023-06-10T11:45:12.314Z,3060.00
2023-06-10T11:46:12.143Z,3042.00
2023-06-10T11:47:12.169Z,3048.00
2023-06-10T11:48:12.210Z,3055.00
2023-06-10T11:49:12.232Z,3060.00
2023-06-10T11:50:12.278Z,3078.00
2023-06-10T11:51:12.312Z,3063.00
2023-06-10T11:52:12.364Z,3061.00
2023-06-10T11:53:12.390Z,3041.00
2023-06-10T11:54:12.429Z,3054.00
2023-06-10T11:55:12.788Z,3054.00
2023-06-10T11:56:12.426Z,3054.00
2023-06-10T11:57:12.394Z,3056.00
2023-06-10T11:58:12.386Z,3061.00
2023-06-10T11:59:12.381Z,3065.00
2023-06-10T12:00:12.344Z,3056.00
2023-06-10T12:01:13.310Z,3058.00
2023-06-10T12:02:12.428Z,3054.00
2023-06-10T12:03:12.394Z,3050.00
2023-06-10T12:04:12.333Z,3050.00
2023-06-10T12:05:12.659Z,3057.00
2023-06-10T12:06:12.271Z,3057.00
2023-06-10T12:07:12.266Z,3060.00
2023-06-10T12:08:12.285Z,3054.00
2023-06-10T12:09:22.760Z,3041.00
2023-06-10T12:10:26.840Z,3058.00